Terminal Aerodrome Forecast
Issued by NWS

Home | Current Version | Previous Version | Text Only | Print | Product List | Glossary On
Versions: 1 2 3 4 5 6 7 8 9 10 11 12 13 14 15 16 17 18 19 20 21
000
FTUS43 KAPX 270527
TAFMBL
TAF
KMBL 270527Z 2706/2806 22004KT P6SM FEW250
     FM271800 30007KT P6SM SCT060
     FM272300 34006KT P6SM VCSH BKN060
     FM280400 04004KT P6SM BKN100=

USA.gov is the U.S. government's official web portal to all federal, state and local government web resources and services.